Time;durP1;ratioP1;P1;durP2;ratioP2;P2;SDS_P1;SDS_P2;PMS_P1;PMS_P2;Temp;Humidity;BMP_temperature;BMP_pressure;BME280_temperature;BME280_humidity;BME280_pressure;Samples;Min_cycle;Max_cycle;Signal;HPM_P1;HPM_P2
2021/04/16 00:01:26;;;;;;;10.57;2.37;;;21.90;74.90;;;;;;5033822;28;20267;-78
2021/04/16 00:03:53;;;;;;;8.20;2.50;;;22.00;74.70;;;;;;5054578;28;20654;-78
2021/04/16 00:06:21;;;;;;;5.70;2.33;;;22.00;74.90;;;;;;5053572;28;20188;-74
2021/04/16 00:08:48;;;;;;;5.13;2.30;;;22.10;75.40;;;;;;5059000;28;20217;-69
2021/04/16 00:11:24;;;;;;;7.63;2.27;;;22.00;74.90;;;;;;5052848;28;20172;-82
2021/04/16 00:13:52;;;;;;;7.13;2.50;;;22.00;75.10;;;;;;5058237;28;20680;-79
2021/04/16 00:16:22;;;;;;;9.63;2.63;;;22.10;75.60;;;;;;5069564;28;20197;-76
2021/04/16 00:18:50;;;;;;;5.67;2.20;;;22.10;75.80;;;;;;5063071;28;20214;-74
2021/04/16 00:21:18;;;;;;;10.60;2.67;;;22.00;76.30;;;;;;5053000;28;20654;-70
2021/04/16 00:23:46;;;;;;;13.30;2.47;;;22.00;77.00;;;;;;5051268;28;20211;-77
2021/04/16 00:26:15;;;;;;;9.13;2.13;;;22.20;76.60;;;;;;5054776;28;20731;-72
2021/04/16 00:28:43;;;;;;;16.33;3.20;;;22.50;76.90;;;;;;5055948;28;20184;-75
2021/04/16 00:31:17;;;;;;;7.30;2.87;;;22.40;77.20;;;;;;5049179;28;20301;-79
2021/04/16 00:33:45;;;;;;;9.50;2.23;;;22.40;78.30;;;;;;5055136;28;20215;-75
2021/04/16 00:36:13;;;;;;;10.13;2.60;;;22.50;77.90;;;;;;5051034;28;20191;-74
2021/04/16 00:38:41;;;;;;;10.03;2.53;;;22.30;78.30;;;;;;5052691;28;20194;-72
2021/04/16 00:41:12;;;;;;;8.93;2.73;;;22.40;79.00;;;;;;5049713;28;20195;-69
2021/04/16 00:43:40;;;;;;;12.10;2.77;;;22.60;79.20;;;;;;5055525;28;20180;-71
2021/04/16 00:46:13;;;;;;;12.20;2.53;;;22.80;79.00;;;;;;5052161;28;20194;-69
2021/04/16 00:48:43;;;;;;;13.00;3.37;;;23.20;79.50;;;;;;5050137;28;20191;-72
2021/04/16 00:51:28;;;;;;;10.57;2.70;;;23.00;80.50;;;;;;5046436;28;20201;-77
2021/04/16 00:53:56;;;;;;;9.50;2.20;;;22.70;81.00;;;;;;5054526;28;20215;-71
2021/04/16 00:56:25;;;;;;;10.87;2.80;;;22.80;82.40;;;;;;5057144;28;20211;-76
2021/04/16 00:58:52;;;;;;;9.73;2.60;;;22.70;83.20;;;;;;5055795;28;20198;-75
2021/04/16 01:01:21;;;;;;;10.97;3.33;;;22.50;83.60;;;;;;5054062;28;20566;-74
2021/04/16 01:03:49;;;;;;;18.90;3.20;;;22.60;85.50;;;;;;5058795;28;20526;-74
2021/04/16 01:06:16;;;;;;;14.03;2.53;;;22.70;86.00;;;;;;5054787;28;20665;-71
2021/04/16 01:08:44;;;;;;;14.47;2.93;;;22.70;87.10;;;;;;5031978;28;20182;-77
2021/04/16 01:11:11;;;;;;;13.27;2.77;;;22.80;88.10;;;;;;5031586;28;20187;-75
2021/04/16 01:13:39;;;;;;;16.10;3.20;;;22.70;88.70;;;;;;5053143;28;20214;-76
2021/04/16 01:16:12;;;;;;;13.73;2.93;;;22.90;89.30;;;;;;5049238;28;20195;-73
2021/04/16 01:18:49;;;;;;;17.90;2.83;;;22.70;88.80;;;;;;5052034;28;20588;-75
2021/04/16 01:21:24;;;;;;;16.33;3.70;;;22.30;89.80;;;;;;5051859;28;20619;-72
2021/04/16 01:24:23;;;;;;;12.70;2.60;;;22.00;90.40;;;;;;5051081;28;20186;-79
2021/04/16 01:26:51;;;;;;;13.67;2.90;;;21.90;90.70;;;;;;5050045;28;20183;-71
2021/04/16 01:29:20;;;;;;;23.47;3.90;;;21.90;90.80;;;;;;5052302;28;20211;-78
2021/04/16 01:31:47;;;;;;;15.50;3.20;;;22.00;90.90;;;;;;5052847;28;20813;-76
2021/04/16 01:34:28;;;;;;;11.97;2.70;;;22.10;90.70;;;;;;5050862;28;20290;-76
2021/04/16 01:36:58;;;;;;;15.77;3.03;;;22.10;91.00;;;;;;5050371;28;20187;-77
2021/04/16 01:39:28;;;;;;;18.07;3.60;;;21.90;91.00;;;;;;5053492;28;20179;-75
2021/04/16 01:41:56;;;;;;;19.53;3.10;;;21.60;91.30;;;;;;5052974;28;20176;-70
2021/04/16 01:44:28;;;;;;;19.33;3.07;;;21.50;91.50;;;;;;5050605;28;20580;-74
2021/04/16 01:47:04;;;;;;;22.13;3.70;;;21.70;91.50;;;;;;5058441;28;20490;-77
2021/04/16 01:49:36;;;;;;;16.63;3.00;;;22.20;91.10;;;;;;5054460;28;20171;-75
2021/04/16 01:52:05;;;;;;;12.87;3.37;;;22.90;90.00;;;;;;5059507;28;20176;-75
2021/04/16 01:54:42;;;;;;;12.13;2.53;;;22.90;88.50;;;;;;5055564;28;20283;-73
2021/04/16 01:57:17;;;;;;;14.60;2.73;;;23.20;88.10;;;;;;5060367;28;20558;-79
2021/04/16 01:59:46;;;;;;;18.47;2.67;;;23.60;87.00;;;;;;5055548;28;20183;-78
2021/04/16 02:02:21;;;;;;;14.40;2.67;;;24.00;85.80;;;;;;5056366;28;20186;-76
2021/04/16 02:04:49;;;;;;;12.73;2.67;;;23.90;84.20;;;;;;5058235;28;20211;-77
2021/04/16 02:07:17;;;;;;;15.10;3.00;;;23.80;84.70;;;;;;5055716;28;20195;-81
2021/04/16 02:09:45;;;;;;;16.37;2.40;;;23.60;84.60;;;;;;5055182;28;20295;-74
2021/04/16 02:12:15;;;;;;;15.10;3.10;;;23.40;84.80;;;;;;5060302;28;20185;-73
2021/04/16 02:14:43;;;;;;;13.13;2.30;;;23.40;84.00;;;;;;5054841;28;20575;-78
2021/04/16 02:17:18;;;;;;;12.90;2.20;;;23.40;84.00;;;;;;5055231;28;20182;-79
2021/04/16 02:19:46;;;;;;;14.20;3.10;;;23.10;85.40;;;;;;5061242;28;20183;-76
2021/04/16 02:22:18;;;;;;;20.90;2.93;;;23.10;85.50;;;;;;5066710;28;20207;-70
2021/04/16 02:24:46;;;;;;;9.70;2.17;;;23.70;84.30;;;;;;5056260;28;20612;-73
2021/04/16 02:27:16;;;;;;;15.90;2.67;;;23.90;83.10;;;;;;5065934;28;20249;-72
2021/04/16 02:29:43;;;;;;;12.57;2.50;;;23.80;82.70;;;;;;5061699;28;20247;-80
2021/04/16 02:32:11;;;;;;;9.97;2.20;;;23.80;83.30;;;;;;5074803;28;20167;-73
2021/04/16 02:34:39;;;;;;;11.50;2.87;;;24.20;83.30;;;;;;5074350;28;20280;-76
2021/04/16 02:37:10;;;;;;;11.47;2.47;;;24.80;81.60;;;;;;5066143;28;20179;-76
2021/04/16 02:39:38;;;;;;;13.67;2.40;;;24.70;80.10;;;;;;5055596;28;20174;-79
2021/04/16 02:42:06;;;;;;;18.50;2.50;;;24.20;80.90;;;;;;5056837;28;20241;-73
2021/04/16 02:44:34;;;;;;;9.97;2.93;;;23.90;82.50;;;;;;5052137;28;20183;-75
2021/04/16 02:47:01;;;;;;;12.63;2.60;;;23.30;84.10;;;;;;5054115;28;20180;-77
2021/04/16 02:49:29;;;;;;;8.87;2.20;;;22.70;85.80;;;;;;5056160;28;20660;-78
2021/04/16 02:51:56;;;;;;;11.47;2.73;;;22.10;87.50;;;;;;5054662;28;20188;-75
2021/04/16 02:54:24;;;;;;;17.10;3.07;;;22.00;88.30;;;;;;5050544;28;20253;-76
2021/04/16 02:56:51;;;;;;;8.77;2.00;;;22.10;88.10;;;;;;5054489;28;20255;-75
2021/04/16 02:59:20;;;;;;;10.17;2.20;;;22.40;86.40;;;;;;5050476;28;20176;-77
2021/04/16 03:01:48;;;;;;;13.17;2.60;;;22.80;85.40;;;;;;5053762;28;20544;-73
2021/04/16 03:04:16;;;;;;;8.63;2.40;;;23.10;84.80;;;;;;5057085;28;20262;-71
2021/04/16 03:06:44;;;;;;;12.57;1.90;;;23.30;84.20;;;;;;5053300;28;20180;-80
2021/04/16 03:09:11;;;;;;;13.90;2.30;;;23.10;84.00;;;;;;5056952;28;20171;-76
2021/04/16 03:11:39;;;;;;;14.13;2.17;;;22.70;84.70;;;;;;5061586;28;20176;-76
2021/04/16 03:14:06;;;;;;;12.33;2.33;;;22.30;85.90;;;;;;5055295;28;20725;-77
2021/04/16 03:16:34;;;;;;;10.77;2.87;;;22.50;86.50;;;;;;5049249;28;20195;-78
2021/04/16 03:19:04;;;;;;;14.00;2.57;;;22.80;85.40;;;;;;5054376;28;20176;-76
2021/04/16 03:21:31;;;;;;;7.93;2.43;;;22.80;85.10;;;;;;5052111;28;20176;-72
2021/04/16 03:23:59;;;;;;;18.90;2.67;;;22.30;86.00;;;;;;5073374;28;20198;-75
2021/04/16 03:26:26;;;;;;;11.93;2.30;;;22.00;87.30;;;;;;5074366;28;20654;-76
2021/04/16 03:28:59;;;;;;;15.63;2.37;;;22.10;87.70;;;;;;5074668;28;20622;-75
2021/04/16 03:31:28;;;;;;;13.37;2.67;;;22.00;87.10;;;;;;5074366;28;20377;-79
2021/04/16 03:33:57;;;;;;;15.00;2.93;;;21.90;87.10;;;;;;5073988;28;20298;-77
2021/04/16 03:36:25;;;;;;;10.23;2.47;;;21.70;87.40;;;;;;5064542;28;20515;-78
2021/04/16 03:38:53;;;;;;;11.23;2.83;;;21.70;88.60;;;;;;5074175;28;20592;-74
2021/04/16 03:41:21;;;;;;;13.27;2.60;;;21.60;88.80;;;;;;5064641;28;20549;-77
2021/04/16 03:43:49;;;;;;;17.47;3.70;;;21.60;89.40;;;;;;5052670;28;20715;-80
2021/04/16 03:46:17;;;;;;;16.00;2.37;;;21.50;89.30;;;;;;5072887;28;20182;-73
2021/04/16 03:48:45;;;;;;;13.60;2.93;;;21.20;89.70;;;;;;5071300;28;20213;-80
2021/04/16 03:51:13;;;;;;;11.77;2.67;;;21.10;90.20;;;;;;5073446;28;20630;-77
2021/04/16 03:53:41;;;;;;;13.80;2.63;;;21.20;90.20;;;;;;5073643;28;20214;-78
2021/04/16 03:56:11;;;;;;;14.53;2.43;;;21.20;90.00;;;;;;5073661;28;20184;-77
2021/04/16 03:58:40;;;;;;;11.33;2.90;;;21.20;90.00;;;;;;5073600;28;20823;-82
2021/04/16 04:01:09;;;;;;;17.17;2.70;;;21.20;90.00;;;;;;5073709;28;20171;-82
2021/04/16 04:03:37;;;;;;;15.77;2.60;;;21.30;89.80;;;;;;5073474;28;20169;-75
2021/04/16 04:06:06;;;;;;;11.87;2.70;;;21.20;90.20;;;;;;5060396;28;20234;-80
2021/04/16 04:08:35;;;;;;;13.77;2.77;;;21.20;90.30;;;;;;5033501;28;20168;-77
2021/04/16 04:11:04;;;;;;;9.60;2.20;;;21.20;90.10;;;;;;5060956;28;20203;-80
2021/04/16 04:13:31;;;;;;;16.87;2.97;;;21.30;90.20;;;;;;5052879;28;20219;-77
2021/04/16 04:15:59;;;;;;;11.40;2.90;;;21.20;90.10;;;;;;5056838;28;20218;-78
2021/04/16 04:18:26;;;;;;;14.20;2.70;;;21.00;90.60;;;;;;5067702;28;20179;-75
2021/04/16 04:20:54;;;;;;;13.23;3.00;;;20.80;90.80;;;;;;5073256;28;20262;-76
2021/04/16 04:23:21;;;;;;;8.50;2.30;;;20.70;90.80;;;;;;5073441;28;20171;-77
2021/04/16 04:25:48;;;;;;;14.63;2.70;;;20.90;90.60;;;;;;5073136;28;20179;-72
2021/04/16 04:28:16;;;;;;;13.87;2.37;;;21.00;90.70;;;;;;5073229;28;20206;-71
2021/04/16 04:30:43;;;;;;;15.60;2.30;;;21.10;90.40;;;;;;5072885;28;20227;-75
2021/04/16 04:33:11;;;;;;;20.37;3.00;;;21.10;90.70;;;;;;5073005;28;20171;-77
2021/04/16 04:35:38;;;;;;;9.47;2.40;;;21.10;90.50;;;;;;5073031;28;20661;-76
2021/04/16 04:38:06;;;;;;;12.43;2.47;;;21.30;90.50;;;;;;5072753;28;20217;-77
2021/04/16 04:40:35;;;;;;;10.93;2.43;;;21.90;89.30;;;;;;5072865;28;20657;-81
2021/04/16 04:43:03;;;;;;;13.73;1.93;;;22.60;87.50;;;;;;5072829;28;20202;-75
2021/04/16 04:45:31;;;;;;;15.13;2.97;;;22.50;86.90;;;;;;5065506;28;20654;-77
2021/04/16 04:47:59;;;;;;;11.13;2.00;;;22.30;87.10;;;;;;5069892;28;20186;-74
2021/04/16 04:50:27;;;;;;;12.50;2.23;;;22.30;87.50;;;;;;5072720;28;20526;-76
2021/04/16 04:52:56;;;;;;;14.03;2.70;;;22.30;87.40;;;;;;5072793;28;20175;-76
2021/04/16 04:55:27;;;;;;;10.80;2.63;;;22.00;87.40;;;;;;5073159;28;20284;-76
2021/04/16 04:57:55;;;;;;;11.77;2.20;;;21.60;88.10;;;;;;5072843;28;20225;-76
2021/04/16 05:00:23;;;;;;;14.10;2.93;;;21.30;89.30;;;;;;5072176;28;20233;-81
2021/04/16 05:02:50;;;;;;;8.73;2.40;;;21.20;90.00;;;;;;5072581;28;20171;-79
2021/04/16 05:05:19;;;;;;;12.10;2.37;;;20.90;89.90;;;;;;5072401;28;20179;-75
2021/04/16 05:07:47;;;;;;;11.97;2.30;;;20.90;90.20;;;;;;5066707;28;20178;-79
2021/04/16 05:10:16;;;;;;;7.13;2.03;;;20.60;90.20;;;;;;5072811;28;20175;-78
2021/04/16 05:12:43;;;;;;;11.87;2.40;;;20.50;90.60;;;;;;5072667;28;20696;-78
2021/04/16 05:15:11;;;;;;;11.73;2.27;;;20.50;90.60;;;;;;5056880;28;20216;-76
2021/04/16 05:17:39;;;;;;;18.00;2.60;;;20.50;90.50;;;;;;5050844;28;20188;-76
2021/04/16 05:20:09;;;;;;;12.80;2.53;;;20.60;90.50;;;;;;5060165;28;20597;-72
2021/04/16 05:22:36;;;;;;;13.63;2.43;;;20.80;89.60;;;;;;5052253;28;20665;-78
2021/04/16 05:25:04;;;;;;;14.80;2.43;;;21.40;88.70;;;;;;5067511;28;20174;-72
2021/04/16 05:27:32;;;;;;;14.07;2.17;;;21.30;88.80;;;;;;5055767;28;20183;-74
2021/04/16 05:30:00;;;;;;;7.57;1.73;;;21.10;89.10;;;;;;5073980;28;20695;-74
2021/04/16 05:32:27;;;;;;;6.33;1.90;;;21.10;89.10;;;;;;5075772;28;20211;-71
2021/04/16 05:34:54;;;;;;;9.47;1.90;;;21.10;89.60;;;;;;5064080;28;20659;-70
2021/04/16 05:37:23;;;;;;;9.87;2.20;;;21.30;89.10;;;;;;5056072;28;20672;-70
2021/04/16 05:39:51;;;;;;;9.43;2.07;;;21.30;88.60;;;;;;5055628;28;20266;-71
2021/04/16 05:42:20;;;;;;;15.43;2.20;;;20.90;88.40;;;;;;5064093;28;20267;-74
2021/04/16 05:44:47;;;;;;;12.83;2.47;;;20.70;88.60;;;;;;5072152;28;20182;-71
2021/04/16 05:47:14;;;;;;;14.77;2.60;;;20.50;89.10;;;;;;5065415;28;20755;-71
2021/04/16 05:49:42;;;;;;;14.27;1.90;;;20.50;89.50;;;;;;5076276;28;20210;-71
2021/04/16 05:52:10;;;;;;;14.37;2.00;;;20.60;89.10;;;;;;5068922;28;20175;-70
2021/04/16 05:54:38;;;;;;;6.53;1.53;;;20.90;89.10;;;;;;5062155;28;20199;-75
2021/04/16 05:57:06;;;;;;;10.00;1.90;;;21.10;87.90;;;;;;5064666;28;20171;-71
2021/04/16 05:59:33;;;;;;;10.13;2.43;;;21.00;88.00;;;;;;5075714;28;20214;-70
2021/04/16 06:02:01;;;;;;;11.43;2.33;;;20.90;87.90;;;;;;5074902;28;20163;-71
2021/04/16 06:04:29;;;;;;;6.00;1.97;;;20.90;88.50;;;;;;5059270;28;20215;-73
2021/04/16 06:06:56;;;;;;;9.10;1.80;;;21.00;88.30;;;;;;5058094;28;20203;-72
2021/04/16 06:09:23;;;;;;;7.43;2.23;;;20.90;88.10;;;;;;5055633;28;20196;-74
2021/04/16 06:11:51;;;;;;;15.40;2.73;;;20.90;88.10;;;;;;5064598;28;20184;-72
2021/04/16 06:14:18;;;;;;;15.67;2.10;;;20.80;88.70;;;;;;5056591;28;20211;-72
2021/04/16 06:16:45;;;;;;;9.70;1.80;;;20.90;88.70;;;;;;5065654;28;20195;-72
2021/04/16 06:19:13;;;;;;;9.97;1.73;;;20.80;88.40;;;;;;5075466;28;20179;-71
2021/04/16 06:21:40;;;;;;;8.57;2.13;;;20.80;88.60;;;;;;5060733;28;20186;-70
2021/04/16 06:24:08;;;;;;;7.53;1.73;;;20.90;88.40;;;;;;5058509;28;20237;-68
2021/04/16 06:26:35;;;;;;;9.17;1.80;;;21.10;88.50;;;;;;5075445;28;20179;-74
2021/04/16 06:29:05;;;;;;;7.07;1.83;;;21.10;87.40;;;;;;5061631;28;20187;-69
2021/04/16 06:31:33;;;;;;;10.47;2.20;;;20.80;88.10;;;;;;5045885;28;20596;-69
2021/04/16 06:34:00;;;;;;;10.80;2.47;;;20.40;88.30;;;;;;5055116;28;20697;-76
2021/04/16 06:36:27;;;;;;;10.63;1.83;;;20.20;89.30;;;;;;5036562;28;20595;-75
2021/04/16 06:38:55;;;;;;;8.13;2.00;;;20.10;89.80;;;;;;5033327;28;20187;-73
2021/04/16 06:41:26;;;;;;;13.30;2.40;;;20.00;90.20;;;;;;5033931;28;20183;-71
2021/04/16 06:44:00;;;;;;;14.57;2.73;;;19.90;90.40;;;;;;5034587;28;20607;-70
2021/04/16 06:46:36;;;;;;;16.47;2.90;;;19.80;90.70;;;;;;5029310;28;20195;-70
2021/04/16 06:49:11;;;;;;;8.53;1.70;;;19.70;90.90;;;;;;5035290;28;20638;-72
2021/04/16 06:52:06;;;;;;;11.43;2.65;;;19.70;91.10;;;;;;5032381;28;20422;-73
2021/04/16 06:55:17;;;;;;;14.90;2.33;;;19.70;91.30;;;;;;5033358;28;20246;-78
2021/04/16 06:57:45;;;;;;;11.80;2.00;;;19.60;91.40;;;;;;5029740;28;20536;-71
2021/04/16 07:00:40;;;;;;;10.33;2.07;;;19.50;91.40;;;;;;5045839;28;20679;-74
2021/04/16 07:03:36;;;;;;;14.23;2.27;;;19.40;91.60;;;;;;5039727;28;20192;-74
2021/04/16 07:06:23;;;;;;;15.67;2.63;;;19.50;91.70;;;;;;5053698;28;20249;-71
2021/04/16 07:08:55;;;;;;;8.57;2.03;;;19.50;91.80;;;;;;5045438;28;20549;-74
2021/04/16 07:11:30;;;;;;;11.40;2.37;;;19.40;91.90;;;;;;5027939;28;20179;-75
2021/04/16 07:14:01;;;;;;;17.27;3.13;;;19.30;91.90;;;;;;5037437;28;20200;-73
2021/04/16 07:16:31;;;;;;;14.63;2.37;;;19.20;92.00;;;;;;5029817;28;20176;-76
2021/04/16 07:19:02;;;;;;;9.90;2.27;;;19.10;91.90;;;;;;5033577;28;20193;-74
2021/04/16 07:21:30;;;;;;;12.50;2.47;;;19.10;91.90;;;;;;5041684;28;20203;-75
2021/04/16 07:24:03;;;;;;;8.23;2.00;;;19.00;91.80;;;;;;5038939;28;20183;-75
2021/04/16 07:26:44;;;;;;;12.53;1.93;;;19.00;91.80;;;;;;5035261;28;20193;-71
2021/04/16 07:29:34;;;;;;;10.67;1.90;;;19.00;91.80;;;;;;5038225;28;20171;-75
2021/04/16 07:32:02;;;;;;;10.27;2.33;;;18.90;91.80;;;;;;5061939;28;20290;-76
2021/04/16 07:34:32;;;;;;;9.37;2.33;;;18.90;92.00;;;;;;5055785;28;20215;-74
2021/04/16 07:37:09;;;;;;;11.07;2.73;;;18.90;92.00;;;;;;5055469;28;20203;-75
2021/04/16 07:39:43;;;;;;;7.30;1.70;;;18.80;92.00;;;;;;5066067;28;20728;-73
2021/04/16 07:42:12;;;;;;;10.93;2.60;;;18.80;92.00;;;;;;5072043;28;20641;-72
2021/04/16 07:45:08;;;;;;;8.63;2.37;;;18.80;92.00;;;;;;5060584;28;20271;-73
2021/04/16 07:47:36;;;;;;;15.07;2.20;;;18.80;92.10;;;;;;5046389;28;20187;-75
2021/04/16 07:50:07;;;;;;;19.43;2.50;;;18.70;92.30;;;;;;5073872;28;20179;-74
2021/04/16 07:52:42;;;;;;;9.93;2.27;;;18.60;92.40;;;;;;5072930;28;20171;-72
2021/04/16 07:55:13;;;;;;;7.67;1.80;;;18.70;92.60;;;;;;5062612;28;20558;-73
2021/04/16 07:57:59;;;;;;;13.70;2.40;;;18.60;92.60;;;;;;5063708;28;20266;-74
2021/04/16 08:00:44;;;;;;;13.47;2.50;;;18.60;92.50;;;;;;5070937;28;20190;-73
2021/04/16 08:03:19;;;;;;;11.00;1.93;;;18.60;92.40;;;;;;5043897;28;20656;-74
2021/04/16 08:06:02;;;;;;;7.90;1.80;;;18.60;92.50;;;;;;5052773;28;20191;-75
2021/04/16 08:08:34;;;;;;;7.87;1.77;;;18.50;92.60;;;;;;5059188;28;20171;-73
2021/04/16 08:11:01;;;;;;;14.57;2.50;;;18.50;92.80;;;;;;5068942;28;20184;-72
2021/04/16 08:13:32;;;;;;;8.43;2.03;;;18.50;92.80;;;;;;5071698;28;20607;-73
2021/04/16 08:16:25;;;;;;;13.37;1.97;;;18.50;92.50;;;;;;5066379;28;20210;-73
2021/04/16 08:19:04;;;;;;;9.20;1.93;;;18.50;92.50;;;;;;5050910;28;20179;-72
2021/04/16 08:21:44;;;;;;;10.60;2.20;;;18.50;92.50;;;;;;5070072;28;20228;-72
2021/04/16 08:24:26;;;;;;;10.13;2.33;;;18.50;92.30;;;;;;5065074;28;20194;-76
2021/04/16 08:27:33;;;;;;;8.63;2.03;;;18.50;92.60;;;;;;5055551;28;20187;-73
2021/04/16 08:30:09;;;;;;;11.83;2.37;;;18.50;92.20;;;;;;5059478;28;20263;-73
2021/04/16 08:33:02;;;;;;;10.03;2.03;;;18.50;92.30;;;;;;5058808;28;20270;-74
2021/04/16 08:35:38;;;;;;;7.83;2.40;;;18.50;92.10;;;;;;5070353;28;20206;-74
2021/04/16 08:38:11;;;;;;;8.20;2.03;;;18.50;92.30;;;;;;5055194;28;20215;-75
2021/04/16 08:40:48;;;;;;;16.80;2.53;;;18.50;92.30;;;;;;5084609;28;20198;-74
2021/04/16 08:43:39;;;;;;;13.37;2.63;;;18.50;92.30;;;;;;5066711;28;20603;-74
2021/04/16 08:46:34;;;;;;;9.27;3.10;;;18.50;92.60;;;;;;5057384;28;20191;-71
2021/04/16 08:49:34;;;;;;;11.20;2.43;;;18.50;92.30;;;;;;5068796;28;20183;-76
2021/04/16 08:52:50;;;;;;;13.37;3.87;;;18.50;92.40;;;;;;5052363;28;20601;-74
2021/04/16 08:55:32;;;;;;;8.97;2.17;;;18.50;92.40;;;;;;5041715;28;20265;-75
2021/04/16 08:58:05;;;;;;;11.80;2.07;;;18.50;92.20;;;;;;5063656;28;20530;-72
2021/04/16 09:00:44;;;;;;;8.20;1.90;;;18.50;92.40;;;;;;5059922;28;20530;-70
2021/04/16 09:03:38;;;;;;;14.33;2.00;;;18.50;92.40;;;;;;5057980;28;20525;-74
2021/04/16 09:06:07;;;;;;;10.27;2.00;;;18.50;92.30;;;;;;5057978;28;20544;-70
2021/04/16 09:08:46;;;;;;;6.83;1.80;;;18.50;92.40;;;;;;5056044;28;20171;-69
2021/04/16 09:11:34;;;;;;;13.40;2.53;;;18.50;92.60;;;;;;5068726;28;20190;-73
2021/04/16 09:14:02;;;;;;;7.07;1.73;;;18.50;92.40;;;;;;5060612;28;20282;-73
2021/04/16 09:16:49;;;;;;;10.20;2.10;;;18.50;92.50;;;;;;5054567;28;20187;-70
2021/04/16 09:19:28;;;;;;;8.43;1.87;;;18.50;92.30;;;;;;5072275;28;20171;-73
2021/04/16 09:22:05;;;;;;;11.70;2.00;;;18.50;92.20;;;;;;5050137;28;20207;-72
2021/04/16 09:24:56;;;;;;;10.13;2.47;;;18.40;92.30;;;;;;5055104;28;20195;-69
2021/04/16 09:27:26;;;;;;;7.23;1.60;;;18.40;92.30;;;;;;5071834;28;20209;-73
2021/04/16 09:30:13;;;;;;;10.23;2.07;;;18.40;92.30;;;;;;5070124;28;20723;-72
2021/04/16 09:32:54;;;;;;;14.93;3.53;;;18.40;92.20;;;;;;5061836;28;20187;-74
2021/04/16 09:35:27;;;;;;;7.73;1.70;;;18.30;92.30;;;;;;5053326;28;21121;-72
2021/04/16 09:38:26;;;;;;;9.00;1.77;;;18.30;92.40;;;;;;5064133;28;20630;-70
2021/04/16 09:41:11;;;;;;;11.90;1.97;;;18.30;92.50;;;;;;5070526;28;20295;-73
2021/04/16 09:43:40;;;;;;;18.77;10.20;;;18.30;92.40;;;;;;5071725;28;20183;-70
2021/04/16 09:46:32;;;;;;;14.30;5.00;;;18.30;92.40;;;;;;5054931;28;20176;-71
2021/04/16 09:49:07;;;;;;;17.80;8.00;;;18.40;92.60;;;;;;5059773;28;20186;-69
2021/04/16 09:51:45;;;;;;;7.13;2.37;;;18.40;92.50;;;;;;5049852;28;20195;-70
2021/04/16 09:54:12;;;;;;;12.30;2.00;;;18.40;92.30;;;;;;5050038;28;20223;-70
2021/04/16 09:57:08;;;;;;;6.53;1.90;;;18.50;92.20;;;;;;5049945;28;20590;-72
2021/04/16 09:59:39;;;;;;;10.07;2.07;;;18.40;92.30;;;;;;5051998;28;20177;-73
2021/04/16 10:02:12;;;;;;;11.43;1.50;;;18.40;92.30;;;;;;5041791;28;20195;-73
2021/04/16 10:05:09;;;;;;;10.07;2.53;;;18.40;92.40;;;;;;5051968;28;20183;-71
2021/04/16 10:07:54;;;;;;;13.63;1.97;;;18.40;92.50;;;;;;5051851;28;20171;-71
2021/04/16 10:10:40;;;;;;;9.07;2.43;;;18.40;92.50;;;;;;5048679;28;20183;-71
2021/04/16 10:13:41;;;;;;;12.70;2.63;;;18.30;92.60;;;;;;5055308;28;20203;-70
2021/04/16 10:16:19;;;;;;;11.33;1.97;;;18.30;92.70;;;;;;5050298;28;20215;-73
2021/04/16 10:18:47;;;;;;;7.40;2.00;;;18.20;92.80;;;;;;5054271;28;20180;-73
2021/04/16 10:21:17;;;;;;;11.97;2.07;;;18.30;92.90;;;;;;5055414;28;20183;-72
2021/04/16 10:23:50;;;;;;;15.40;3.43;;;18.20;93.00;;;;;;5053072;28;20195;-70
2021/04/16 10:51:10;;;;;;;8.77;2.00;;;18.20;93.20;;;;;;5055246;28;20176;-71
2021/04/16 12:38:31;;;;;;;10.27;1.70;;;18.00;93.50;;;;;;5073173;28;20226;-70
2021/04/16 12:41:00;;;;;;;7.97;2.03;;;18.00;93.80;;;;;;5072575;28;20644;-70
2021/04/16 12:43:28;;;;;;;17.73;3.53;;;18.00;93.50;;;;;;5067149;28;20221;-73
2021/04/16 12:45:57;;;;;;;7.07;1.43;;;18.00;93.50;;;;;;5071085;28;20591;-70
2021/04/16 12:48:25;;;;;;;9.47;2.47;;;18.00;93.50;;;;;;5070395;28;20234;-69
2021/04/16 12:50:53;;;;;;;13.70;2.07;;;18.10;93.70;;;;;;5072536;28;20579;-70
2021/04/16 12:53:21;;;;;;;8.93;2.17;;;18.00;93.60;;;;;;5072797;28;20220;-72
2021/04/16 12:55:49;;;;;;;11.50;2.30;;;18.00;93.60;;;;;;5072338;28;20206;-70
2021/04/16 12:58:44;;;;;;;9.30;1.57;;;18.00;93.50;;;;;;5061810;28;20236;-69
2021/04/16 13:01:26;;;;;;;7.83;1.83;;;18.00;93.70;;;;;;5070966;28;20278;-69
2021/04/16 13:03:54;;;;;;;10.13;2.20;;;18.10;93.60;;;;;;5072638;28;20167;-71
2021/04/16 13:06:24;;;;;;;7.93;1.70;;;18.10;93.60;;;;;;5072407;28;20203;-70
2021/04/16 13:08:52;;;;;;;11.67;2.30;;;18.00;93.60;;;;;;5067301;28;20183;-70
2021/04/16 13:11:21;;;;;;;16.20;2.27;;;18.10;93.70;;;;;;5069589;28;20545;-70
2021/04/16 13:13:48;;;;;;;11.67;1.80;;;18.10;93.50;;;;;;5068800;28;20214;-71
2021/04/16 13:16:16;;;;;;;10.43;2.20;;;18.10;93.80;;;;;;5065530;28;20277;-69
2021/04/16 13:18:47;;;;;;;8.50;1.73;;;18.00;93.60;;;;;;5072168;28;20163;-70
2021/04/16 13:21:25;;;;;;;11.70;2.03;;;18.00;93.50;;;;;;5072198;28;20202;-70
2021/04/16 13:23:53;;;;;;;12.67;1.83;;;18.00;93.60;;;;;;5058439;28;20186;-69
2021/04/16 13:26:20;;;;;;;7.67;1.97;;;18.00;93.80;;;;;;5071936;28;20183;-70
2021/04/16 13:28:47;;;;;;;10.50;1.77;;;17.90;93.60;;;;;;5071591;28;20179;-74
2021/04/16 13:31:15;;;;;;;12.40;2.17;;;17.90;93.70;;;;;;5072101;28;20299;-72
2021/04/16 13:33:48;;;;;;;8.33;2.57;;;17.90;93.90;;;;;;5071801;28;20198;-72
2021/04/16 13:36:20;;;;;;;10.20;2.27;;;17.90;93.50;;;;;;5072543;28;20182;-73
2021/04/16 13:38:48;;;;;;;7.30;2.00;;;17.90;93.90;;;;;;5072308;28;20205;-73
2021/04/16 13:41:15;;;;;;;11.03;2.30;;;17.90;93.90;;;;;;5044116;28;20196;-72
2021/04/16 13:43:43;;;;;;;7.97;1.70;;;17.90;93.60;;;;;;5052443;28;20191;-72
2021/04/16 13:46:18;;;;;;;21.47;3.37;;;17.90;93.80;;;;;;5055430;28;20203;-72
2021/04/16 13:48:47;;;;;;;8.53;2.00;;;17.90;94.00;;;;;;5052478;28;20656;-69
2021/04/16 13:51:17;;;;;;;10.23;1.77;;;17.90;94.00;;;;;;5057459;28;20642;-69
2021/04/16 13:53:45;;;;;;;9.87;2.07;;;17.80;94.00;;;;;;5057196;28;20195;-70
2021/04/16 13:56:13;;;;;;;8.33;1.63;;;17.70;94.10;;;;;;5056220;28;20180;-72
2021/04/16 13:58:44;;;;;;;12.17;2.00;;;17.60;94.20;;;;;;5055364;28;20175;-72
2021/04/16 14:01:13;;;;;;;8.67;1.70;;;17.60;94.30;;;;;;5054362;28;20180;-69
2021/04/16 14:03:46;;;;;;;10.07;1.83;;;17.60;94.20;;;;;;5058100;28;20217;-70
2021/04/16 14:06:24;;;;;;;8.20;1.43;;;17.50;94.60;;;;;;5050238;28;20263;-70
2021/04/16 14:08:56;;;;;;;9.10;1.57;;;17.40;94.50;;;;;;5055783;28;20183;-69
2021/04/16 14:11:24;;;;;;;8.57;1.80;;;17.40;94.50;;;;;;5055871;28;20172;-71
2021/04/16 14:13:52;;;;;;;11.77;1.77;;;17.40;94.60;;;;;;5053758;28;20254;-73
2021/04/16 14:16:29;;;;;;;10.60;1.90;;;17.30;94.60;;;;;;5047589;28;20274;-71
2021/04/16 14:19:00;;;;;;;8.30;1.80;;;17.20;94.70;;;;;;5053550;28;20182;-73
2021/04/16 14:21:28;;;;;;;6.03;1.77;;;17.20;94.80;;;;;;5058915;28;20713;-71
2021/04/16 14:23:55;;;;;;;9.30;1.83;;;17.20;95.00;;;;;;5061463;28;20209;-71
2021/04/16 14:26:23;;;;;;;6.90;1.83;;;17.10;95.20;;;;;;5055992;28;20212;-72
2021/04/16 14:28:50;;;;;;;7.43;1.57;;;17.20;95.30;;;;;;5071855;28;20180;-73
2021/04/16 14:31:17;;;;;;;8.23;1.90;;;17.10;95.40;;;;;;5075137;28;20219;-73
2021/04/16 14:33:45;;;;;;;10.03;2.03;;;17.10;95.60;;;;;;5075350;28;20561;-74
2021/04/16 14:36:13;;;;;;;11.80;1.87;;;17.00;95.70;;;;;;5075515;28;20175;-73
2021/04/16 14:38:44;;;;;;;8.07;1.83;;;16.90;95.70;;;;;;5075347;28;20183;-71
2021/04/16 14:41:15;;;;;;;10.00;1.83;;;16.90;95.80;;;;;;5075620;28;20187;-70
2021/04/16 14:43:43;;;;;;;9.07;1.97;;;16.80;96.00;;;;;;5064953;28;20303;-73
2021/04/16 14:46:11;;;;;;;7.83;2.10;;;16.70;96.20;;;;;;5060959;28;20526;-70
2021/04/16 14:48:38;;;;;;;11.77;2.67;;;16.70;96.40;;;;;;5074816;28;20186;-71
2021/04/16 14:51:12;;;;;;;5.83;1.60;;;16.70;96.50;;;;;;5034057;28;20192;-73
2021/04/16 14:53:50;;;;;;;4.83;1.73;;;16.70;96.60;;;;;;5050531;28;20205;-73
2021/04/16 14:56:19;;;;;;;7.40;1.60;;;16.60;96.60;;;;;;5074919;28;20638;-73
2021/04/16 14:58:50;;;;;;;12.17;1.87;;;16.60;96.90;;;;;;5075127;28;20171;-73
2021/04/16 15:01:19;;;;;;;6.20;1.63;;;16.60;97.20;;;;;;5071496;28;20171;-73
2021/04/16 15:03:47;;;;;;;10.07;2.00;;;16.50;97.10;;;;;;5072044;28;20171;-73
2021/04/16 15:06:25;;;;;;;7.13;1.60;;;16.40;97.30;;;;;;5074925;28;20240;-71
2021/04/16 15:09:07;;;;;;;6.93;1.83;;;16.40;97.50;;;;;;5075044;28;20175;-72
2021/04/16 15:11:46;;;;;;;12.37;1.87;;;16.50;97.80;;;;;;5074897;28;20216;-70
2021/04/16 15:14:39;;;;;;;5.63;1.90;;;16.50;98.10;;;;;;5075120;28;20206;-69
2021/04/16 15:17:07;;;;;;;8.27;2.20;;;16.50;97.90;;;;;;5059032;28;20195;-69